Time;durP1;ratioP1;P1;durP2;ratioP2;P2;SDS_P1;SDS_P2;PMS_P1;PMS_P2;Temp;Humidity;BMP_temperature;BMP_pressure;BME280_temperature;BME280_humidity;BME280_pressure;Samples;Min_cycle;Max_cycle;Signal;HPM_P1;HPM_P2
2023/07/14 00:01:42;;;;;;;2.50;1.48;;;26.90;81.40;;;;;;5013841;28;20571;-79
2023/07/14 00:04:16;;;;;;;2.78;1.40;;;26.90;81.30;;;;;;5013783;28;20411;-79
2023/07/14 00:06:44;;;;;;;1.95;1.10;;;26.80;81.30;;;;;;4995493;28;20469;-78
2023/07/14 00:09:31;;;;;;;2.30;1.48;;;26.80;81.40;;;;;;5015133;28;20025;-78
2023/07/14 00:11:57;;;;;;;4.07;1.40;;;26.80;81.40;;;;;;5013596;28;20467;-78
2023/07/14 00:14:24;;;;;;;1.48;1.35;;;26.80;81.40;;;;;;5013269;28;20038;-78
2023/07/14 00:16:49;;;;;;;2.28;1.35;;;26.80;81.40;;;;;;5013159;28;20041;-79
2023/07/14 00:19:17;;;;;;;4.05;1.60;;;26.80;81.60;;;;;;5005608;28;20030;-79
2023/07/14 00:21:44;;;;;;;3.03;1.60;;;26.70;81.60;;;;;;5015661;28;20402;-79
2023/07/14 00:24:15;;;;;;;2.95;1.77;;;26.70;81.80;;;;;;5006434;28;20037;-79
2023/07/14 00:26:42;;;;;;;3.08;1.98;;;26.70;82.00;;;;;;5013802;28;20663;-79
2023/07/14 00:29:37;;;;;;;4.68;2.70;;;26.70;82.20;;;;;;5012767;28;20033;-79
2023/07/14 00:32:18;;;;;;;3.65;2.20;;;26.70;83.90;;;;;;5013621;28;20044;-79
2023/07/14 00:34:44;;;;;;;4.07;2.00;;;26.60;83.80;;;;;;5012612;28;20033;-79
2023/07/14 00:37:11;;;;;;;3.40;2.20;;;26.50;84.20;;;;;;5021218;28;20494;-79
2023/07/14 00:39:37;;;;;;;3.42;2.10;;;26.40;84.80;;;;;;5012800;28;20026;-79
2023/07/14 00:42:03;;;;;;;2.22;1.63;;;26.40;84.80;;;;;;5013178;28;20049;-79
2023/07/14 00:44:29;;;;;;;3.78;1.63;;;26.40;85.00;;;;;;5013174;28;20068;-79
2023/07/14 00:46:56;;;;;;;4.68;1.75;;;26.40;84.50;;;;;;5012264;28;20100;-79
2023/07/14 00:49:34;;;;;;;3.33;1.92;;;26.40;84.30;;;;;;5013204;28;20481;-79
2023/07/14 00:52:22;;;;;;;1.80;1.63;;;26.40;83.80;;;;;;5012276;28;20034;-79
2023/07/14 00:54:52;;;;;;;3.42;1.58;;;26.30;83.60;;;;;;5013332;28;20065;-78
2023/07/14 00:57:20;;;;;;;3.22;1.40;;;26.30;83.30;;;;;;5014518;28;20021;-78
2023/07/14 00:59:46;;;;;;;2.72;1.40;;;26.20;82.80;;;;;;5012516;28;20041;-78
2023/07/14 01:02:11;;;;;;;2.88;1.70;;;26.20;82.40;;;;;;5012029;28;20038;-78
2023/07/14 01:04:44;;;;;;;2.40;1.80;;;26.20;82.50;;;;;;5011937;28;20025;-78
2023/07/14 01:07:11;;;;;;;2.72;1.63;;;26.20;82.70;;;;;;5012731;28;20044;-78
2023/07/14 01:09:39;;;;;;;4.82;1.63;;;26.20;82.50;;;;;;5013129;28;20081;-78
2023/07/14 01:12:07;;;;;;;3.72;1.85;;;26.10;82.30;;;;;;5011442;28;20045;-78
2023/07/14 01:14:36;;;;;;;1.80;1.40;;;26.10;82.30;;;;;;5012618;28;20034;-78
2023/07/14 01:17:04;;;;;;;1.23;1.08;;;26.10;81.90;;;;;;5012754;28;20037;-78
2023/07/14 01:19:55;;;;;;;2.10;1.15;;;26.10;81.90;;;;;;5013167;28;20018;-79
2023/07/14 01:22:39;;;;;;;1.90;1.10;;;26.10;81.50;;;;;;5010107;28;20068;-79
2023/07/14 01:25:16;;;;;;;0.88;0.88;;;26.10;80.90;;;;;;5013052;28;20093;-79
2023/07/14 01:27:42;;;;;;;2.10;1.20;;;26.00;80.60;;;;;;5012093;28;20038;-79
2023/07/14 01:30:08;;;;;;;4.95;0.90;;;26.00;80.60;;;;;;5013293;28;20033;-79
2023/07/14 01:32:39;;;;;;;3.22;0.85;;;26.00;80.30;;;;;;5012294;28;20076;-80
2023/07/14 01:35:07;;;;;;;1.70;0.90;;;26.00;80.10;;;;;;5012313;28;20058;-79
2023/07/14 01:37:39;;;;;;;3.10;1.10;;;26.00;80.10;;;;;;5011895;28;20559;-79
2023/07/14 01:40:11;;;;;;;5.75;1.13;;;25.90;80.00;;;;;;5012615;28;20026;-79
2023/07/14 01:42:45;;;;;;;2.40;1.10;;;25.80;80.10;;;;;;5012354;28;20033;-79
2023/07/14 01:45:14;;;;;;;2.45;0.88;;;25.70;80.20;;;;;;5011916;28;20516;-79
2023/07/14 01:47:42;;;;;;;1.55;1.05;;;25.70;80.50;;;;;;5016451;28;20026;-79
2023/07/14 01:50:18;;;;;;;1.58;0.93;;;25.60;80.40;;;;;;5011635;28;20096;-79
2023/07/14 01:52:45;;;;;;;1.13;0.88;;;25.60;80.60;;;;;;5012914;28;20032;-79
2023/07/14 01:55:14;;;;;;;1.75;0.98;;;25.50;80.60;;;;;;5011915;28;20399;-79
2023/07/14 01:57:43;;;;;;;1.02;0.65;;;25.40;80.80;;;;;;5012182;28;20030;-80
2023/07/14 02:00:09;;;;;;;4.18;1.15;;;25.40;80.80;;;;;;5010705;28;20082;-80
2023/07/14 02:02:36;;;;;;;2.10;1.08;;;25.40;80.80;;;;;;5012625;28;20026;-80
2023/07/14 02:05:06;;;;;;;1.90;0.88;;;25.40;81.10;;;;;;5012390;28;20462;-80
2023/07/14 02:07:32;;;;;;;2.67;1.13;;;25.40;81.10;;;;;;5013030;28;20065;-80
2023/07/14 02:09:58;;;;;;;3.22;1.00;;;25.40;81.10;;;;;;5016387;28;20508;-80
2023/07/14 02:12:31;;;;;;;2.78;1.33;;;25.40;81.00;;;;;;5011994;28;20050;-79
2023/07/14 02:14:58;;;;;;;1.65;1.00;;;25.40;80.80;;;;;;5013018;28;20056;-79
2023/07/14 02:17:33;;;;;;;1.88;0.80;;;25.30;80.80;;;;;;5015680;28;20033;-79
2023/07/14 02:20:06;;;;;;;1.40;0.75;;;25.30;80.90;;;;;;5015139;28;20053;-79
2023/07/14 02:22:33;;;;;;;2.38;1.10;;;25.30;81.10;;;;;;5015196;28;20030;-79
2023/07/14 02:25:02;;;;;;;1.13;0.85;;;25.40;81.20;;;;;;5022451;28;20025;-79
2023/07/14 02:27:29;;;;;;;2.40;0.82;;;25.40;81.40;;;;;;5015409;28;20072;-79
2023/07/14 02:30:00;;;;;;;1.70;0.93;;;25.40;80.90;;;;;;5014343;28;20474;-79
2023/07/14 02:32:28;;;;;;;2.38;0.80;;;25.40;80.90;;;;;;5015768;28;20545;-79
2023/07/14 02:35:01;;;;;;;2.75;0.80;;;25.40;81.10;;;;;;5014064;28;20056;-79
2023/07/14 02:38:03;;;;;;;1.25;0.90;;;25.40;80.60;;;;;;4998145;28;20034;-80
2023/07/14 02:40:34;;;;;;;1.52;0.88;;;25.40;80.80;;;;;;5007138;28;20032;-79
2023/07/14 02:43:03;;;;;;;1.95;0.88;;;25.40;80.60;;;;;;5015598;28;20030;-78
2023/07/14 02:45:32;;;;;;;2.73;1.10;;;25.40;80.50;;;;;;5014969;28;20114;-78
2023/07/14 02:47:59;;;;;;;0.95;0.80;;;25.30;80.60;;;;;;5015154;28;20295;-78
2023/07/14 02:50:25;;;;;;;4.25;1.00;;;25.30;80.30;;;;;;5018473;28;20030;-78
2023/07/14 02:52:51;;;;;;;1.77;0.70;;;25.20;80.40;;;;;;5026864;28;20024;-80
2023/07/14 02:55:16;;;;;;;1.30;0.80;;;25.20;80.60;;;;;;5014008;28;20109;-81
2023/07/14 02:57:42;;;;;;;2.08;0.80;;;25.20;80.60;;;;;;5014106;28;20093;-80
2023/07/14 03:00:08;;;;;;;3.45;1.35;;;25.20;80.10;;;;;;5014113;28;20473;-80
2023/07/14 03:02:34;;;;;;;1.27;0.60;;;25.10;80.10;;;;;;5015252;28;20030;-80
2023/07/14 03:05:00;;;;;;;1.45;0.80;;;25.00;80.10;;;;;;5015302;28;20030;-81
2023/07/14 03:07:26;;;;;;;0.65;0.50;;;25.00;80.10;;;;;;5014033;28;20076;-81
2023/07/14 03:09:52;;;;;;;1.88;0.65;;;25.00;80.20;;;;;;5014806;28;20029;-81
2023/07/14 03:12:19;;;;;;;1.20;0.60;;;25.00;80.20;;;;;;5013703;28;20049;-80
2023/07/14 03:14:45;;;;;;;1.38;0.70;;;25.10;79.90;;;;;;5014549;28;20482;-80
2023/07/14 03:17:11;;;;;;;1.90;0.65;;;25.20;79.20;;;;;;5014535;28;20029;-80
2023/07/14 03:19:37;;;;;;;2.38;0.82;;;25.20;78.90;;;;;;4996687;28;20030;-80
2023/07/14 03:22:02;;;;;;;5.40;0.75;;;25.20;78.50;;;;;;5003528;28;20025;-80
2023/07/14 03:24:28;;;;;;;1.10;0.70;;;25.20;78.40;;;;;;5014407;28;20042;-80
2023/07/14 03:26:54;;;;;;;1.13;0.50;;;25.30;77.90;;;;;;5013832;28;20049;-81
2023/07/14 03:29:20;;;;;;;1.38;0.75;;;25.20;77.20;;;;;;5013637;28;20030;-79
2023/07/14 03:31:46;;;;;;;3.33;0.57;;;25.20;77.20;;;;;;5014802;28;20033;-79
2023/07/14 03:34:12;;;;;;;1.45;0.80;;;25.20;77.20;;;;;;4996175;28;20186;-79
2023/07/14 03:36:37;;;;;;;2.78;0.70;;;25.20;77.10;;;;;;5014179;28;20504;-80
2023/07/14 03:39:25;;;;;;;1.23;0.68;;;25.20;77.00;;;;;;4995960;28;20100;-80
2023/07/14 03:41:51;;;;;;;1.63;0.57;;;25.30;77.00;;;;;;5010297;28;20029;-80
2023/07/14 03:44:18;;;;;;;1.05;0.60;;;25.30;77.10;;;;;;5014067;28;20541;-78
2023/07/14 03:46:44;;;;;;;3.55;0.73;;;25.20;77.10;;;;;;5014525;28;20036;-79
2023/07/14 03:49:09;;;;;;;1.05;0.57;;;25.20;76.90;;;;;;5013830;28;20037;-78
2023/07/14 03:51:35;;;;;;;1.15;0.57;;;25.20;76.70;;;;;;5014309;28;20043;-78
2023/07/14 03:54:01;;;;;;;1.92;0.63;;;25.20;76.70;;;;;;5012665;28;20037;-78
2023/07/14 03:56:27;;;;;;;2.83;0.60;;;25.20;76.30;;;;;;5014090;28;20024;-78
2023/07/14 03:58:52;;;;;;;0.77;0.52;;;25.20;76.30;;;;;;5013300;28;20053;-80
2023/07/14 04:01:18;;;;;;;1.20;0.65;;;25.20;76.40;;;;;;5014118;28;20022;-80
2023/07/14 04:03:45;;;;;;;0.60;0.50;;;25.20;75.90;;;;;;5012937;28;20041;-80
2023/07/14 04:06:11;;;;;;;0.90;0.52;;;25.20;76.10;;;;;;5012591;28;20516;-79
2023/07/14 04:08:38;;;;;;;1.50;0.50;;;25.10;75.80;;;;;;5012726;28;20065;-79
2023/07/14 04:11:05;;;;;;;2.35;0.50;;;25.00;76.10;;;;;;5014113;28;20030;-78
2023/07/14 04:13:32;;;;;;;2.63;0.70;;;25.00;76.20;;;;;;5013727;28;20088;-78
2023/07/14 04:15:58;;;;;;;3.20;0.85;;;25.00;76.00;;;;;;5012736;28;20112;-79
2023/07/14 04:18:24;;;;;;;2.83;0.70;;;25.00;76.20;;;;;;5013230;28;20458;-79
2023/07/14 04:20:49;;;;;;;1.52;0.80;;;24.90;76.00;;;;;;5013422;28;20064;-79
2023/07/14 04:23:17;;;;;;;1.65;0.65;;;24.90;75.90;;;;;;5013758;28;20493;-79
2023/07/14 04:25:43;;;;;;;1.17;0.75;;;24.80;76.00;;;;;;5013500;28;20034;-79
2023/07/14 04:28:09;;;;;;;2.85;0.70;;;24.80;76.10;;;;;;5013070;28;20050;-79
2023/07/14 04:30:35;;;;;;;1.40;0.80;;;24.80;76.20;;;;;;5012631;28;20064;-79
2023/07/14 04:33:00;;;;;;;1.33;0.80;;;24.80;76.80;;;;;;5013882;28;20112;-79
2023/07/14 04:35:26;;;;;;;2.33;0.77;;;24.80;76.20;;;;;;5012765;28;20378;-79
2023/07/14 04:37:52;;;;;;;2.85;0.80;;;24.80;76.20;;;;;;5013016;28;20151;-79
2023/07/14 04:40:18;;;;;;;0.80;0.68;;;24.90;76.30;;;;;;5012229;28;20095;-79
2023/07/14 04:42:43;;;;;;;1.52;0.95;;;24.90;76.30;;;;;;5013065;28;20454;-78
2023/07/14 04:45:11;;;;;;;2.47;0.80;;;25.00;76.30;;;;;;5012178;28;20045;-78
2023/07/14 04:47:36;;;;;;;0.93;0.73;;;25.10;76.30;;;;;;5013410;28;20489;-80
2023/07/14 04:50:02;;;;;;;1.98;0.93;;;25.10;76.10;;;;;;5012606;28;20072;-80
2023/07/14 04:52:29;;;;;;;1.83;0.80;;;25.10;75.80;;;;;;5011740;28;20033;-78
2023/07/14 04:54:55;;;;;;;1.38;1.00;;;25.20;75.80;;;;;;5012059;28;20053;-79
2023/07/14 04:57:20;;;;;;;1.13;0.70;;;25.20;75.70;;;;;;4994314;28;20030;-79
2023/07/14 04:59:46;;;;;;;2.28;0.82;;;25.10;75.50;;;;;;5013187;28;20084;-81
2023/07/14 05:02:12;;;;;;;3.90;0.80;;;25.10;75.50;;;;;;5011634;28;20390;-81
2023/07/14 05:04:42;;;;;;;1.77;0.80;;;25.10;75.80;;;;;;5010288;28;20034;-82
2023/07/14 05:07:07;;;;;;;2.50;0.90;;;25.20;76.50;;;;;;5011010;28;20026;-82
2023/07/14 05:09:34;;;;;;;4.95;0.50;;;25.20;76.30;;;;;;5012786;28;20040;-81
2023/07/14 05:12:00;;;;;;;3.38;1.10;;;25.30;76.30;;;;;;5005043;28;20070;-81
2023/07/14 05:14:27;;;;;;;2.28;0.98;;;25.30;76.80;;;;;;4981980;28;20506;-82
2023/07/14 05:16:53;;;;;;;3.72;1.05;;;25.30;76.80;;;;;;4991913;28;20026;-82
2023/07/14 05:19:19;;;;;;;3.28;1.00;;;25.40;77.00;;;;;;4992049;28;20108;-82
2023/07/14 05:21:45;;;;;;;3.15;1.00;;;25.50;77.10;;;;;;4992466;28;20022;-82
2023/07/14 05:24:10;;;;;;;1.67;1.05;;;25.50;77.30;;;;;;4992326;28;20066;-82
2023/07/14 05:26:37;;;;;;;1.02;0.75;;;25.60;77.10;;;;;;4991391;28;20034;-82
2023/07/14 05:29:05;;;;;;;3.00;0.80;;;25.50;77.00;;;;;;4995640;28;20487;-82
2023/07/14 05:31:32;;;;;;;2.95;1.02;;;25.40;77.00;;;;;;5003696;28;20074;-82
2023/07/14 05:33:58;;;;;;;4.10;1.00;;;25.40;77.20;;;;;;4992029;28;20459;-82
2023/07/14 05:36:24;;;;;;;5.22;1.20;;;25.40;77.60;;;;;;4990233;28;20030;-82
2023/07/14 05:38:50;;;;;;;5.35;0.82;;;25.30;77.50;;;;;;4990415;28;20089;-82
2023/07/14 05:41:16;;;;;;;1.92;0.90;;;25.40;77.70;;;;;;4987192;28;20013;-82
2023/07/14 05:43:42;;;;;;;2.00;0.90;;;25.50;77.70;;;;;;4991479;28;20042;-82
2023/07/14 05:46:07;;;;;;;1.65;0.65;;;25.50;77.50;;;;;;4999775;28;20045;-82
2023/07/14 05:48:33;;;;;;;2.15;0.82;;;25.60;77.50;;;;;;4992648;28;20042;-82
2023/07/14 05:50:59;;;;;;;3.55;0.80;;;25.70;77.50;;;;;;4995727;28;20034;-82
2023/07/14 05:53:26;;;;;;;5.80;1.02;;;25.70;77.50;;;;;;5000741;28;20041;-82
2023/07/14 05:55:52;;;;;;;2.70;1.10;;;25.80;77.80;;;;;;4995933;28;20018;-81
2023/07/14 05:58:18;;;;;;;5.63;1.25;;;25.90;77.90;;;;;;4997438;28;20033;-80
2023/07/14 06:00:43;;;;;;;3.20;1.05;;;26.00;77.70;;;;;;4998897;28;20045;-81
2023/07/14 06:03:13;;;;;;;3.15;1.05;;;26.10;77.10;;;;;;4996282;28;20478;-81
2023/07/14 06:05:40;;;;;;;1.95;0.80;;;26.20;77.20;;;;;;4996673;28;20093;-83
2023/07/14 06:08:06;;;;;;;2.40;0.88;;;26.20;76.60;;;;;;4993679;28;20061;-82
2023/07/14 06:10:34;;;;;;;3.45;0.90;;;26.30;76.60;;;;;;4994170;28;20430;-82
2023/07/14 06:13:00;;;;;;;4.05;1.20;;;26.30;76.70;;;;;;5024585;28;20046;-82
2023/07/14 06:15:27;;;;;;;3.35;0.90;;;26.40;76.80;;;;;;5016640;28;20386;-82
2023/07/14 06:17:53;;;;;;;1.30;1.08;;;26.50;76.20;;;;;;4997820;28;20096;-82
2023/07/14 06:20:20;;;;;;;2.05;0.85;;;26.50;76.80;;;;;;5026166;28;20390;-82
2023/07/14 06:22:45;;;;;;;3.05;1.17;;;26.60;76.40;;;;;;5035756;28;20025;-82
2023/07/14 06:25:12;;;;;;;1.92;0.77;;;26.70;75.70;;;;;;5035664;28;20028;-82
2023/07/14 06:27:38;;;;;;;2.22;0.90;;;26.70;75.40;;;;;;5031800;28;20389;-81
2023/07/14 06:30:04;;;;;;;1.20;0.88;;;26.70;74.80;;;;;;5035808;28;20029;-82
2023/07/14 06:32:30;;;;;;;3.45;0.95;;;26.70;74.90;;;;;;5034661;28;20034;-82
2023/07/14 06:34:56;;;;;;;2.83;0.95;;;26.80;75.10;;;;;;4997964;28;20041;-82
2023/07/14 06:37:24;;;;;;;1.95;0.77;;;26.90;75.10;;;;;;5015630;28;20113;-81
2023/07/14 06:39:50;;;;;;;2.22;1.08;;;26.90;75.00;;;;;;5019774;28;20537;-82
2023/07/14 06:42:16;;;;;;;1.40;0.98;;;27.00;74.90;;;;;;5015934;28;20062;-82
2023/07/14 06:44:42;;;;;;;1.90;0.90;;;27.00;74.50;;;;;;5015906;28;20374;-82
2023/07/14 06:47:08;;;;;;;1.60;0.70;;;27.10;74.30;;;;;;5035452;28;20036;-82
2023/07/14 06:49:34;;;;;;;1.35;0.70;;;27.10;74.00;;;;;;5035059;28;20021;-82
2023/07/14 06:52:00;;;;;;;1.70;0.80;;;27.20;74.70;;;;;;5015791;28;20058;-82
2023/07/14 06:54:26;;;;;;;1.20;0.70;;;27.20;73.90;;;;;;5014763;28;20065;-82
2023/07/14 06:56:54;;;;;;;1.25;0.68;;;27.20;73.50;;;;;;5035163;28;20025;-82
2023/07/14 06:59:20;;;;;;;1.02;0.60;;;27.20;73.60;;;;;;5035379;28;20462;-82
2023/07/14 07:01:45;;;;;;;3.33;1.05;;;27.20;72.90;;;;;;5020225;28;20359;-82
2023/07/14 07:04:11;;;;;;;3.28;0.80;;;27.20;71.50;;;;;;5015656;28;20502;-82
2023/07/14 07:06:37;;;;;;;1.58;0.93;;;27.20;71.80;;;;;;4997877;28;20029;-82
2023/07/14 07:09:02;;;;;;;3.15;0.90;;;27.20;71.90;;;;;;5014946;28;20022;-82
2023/07/14 07:11:28;;;;;;;2.63;1.10;;;27.20;71.70;;;;;;5014604;28;20049;-82
2023/07/14 07:13:54;;;;;;;1.60;0.80;;;27.20;71.90;;;;;;5014927;28;20034;-82
2023/07/14 07:16:19;;;;;;;1.30;0.90;;;27.20;71.50;;;;;;5034980;28;20029;-82
2023/07/14 07:18:45;;;;;;;5.38;0.70;;;27.20;71.20;;;;;;5035126;28;20034;-82
2023/07/14 07:21:12;;;;;;;1.25;0.80;;;27.20;71.50;;;;;;5027553;28;20018;-82
2023/07/14 07:23:38;;;;;;;2.08;0.80;;;27.30;71.50;;;;;;5034880;28;20481;-82
2023/07/14 07:26:04;;;;;;;0.93;0.70;;;27.30;71.30;;;;;;5035280;28;20145;-82
2023/07/14 07:28:29;;;;;;;1.10;0.85;;;27.40;71.60;;;;;;5017077;28;20472;-82
2023/07/14 07:30:55;;;;;;;1.33;0.60;;;27.40;71.40;;;;;;5029746;28;20355;-82
2023/07/14 07:33:21;;;;;;;3.13;0.77;;;27.50;71.00;;;;;;5034561;28;20029;-82
2023/07/14 07:35:47;;;;;;;2.05;0.50;;;27.50;70.10;;;;;;5034471;28;20033;-82
2023/07/14 07:38:13;;;;;;;2.80;0.70;;;27.60;70.50;;;;;;5021993;28;20021;-82
2023/07/14 07:40:40;;;;;;;1.25;0.70;;;27.60;70.30;;;;;;5013988;28;20037;-82
2023/07/14 07:43:06;;;;;;;1.63;0.90;;;27.60;70.30;;;;;;5014773;28;20018;-82
2023/07/14 07:45:32;;;;;;;1.80;0.90;;;27.70;70.20;;;;;;5014547;28;20030;-82
2023/07/14 07:47:58;;;;;;;2.20;0.65;;;27.80;69.10;;;;;;5014942;28;20419;-82
2023/07/14 07:50:26;;;;;;;1.63;0.93;;;27.80;68.90;;;;;;5014286;28;20045;-82
2023/07/14 07:52:53;;;;;;;2.08;0.75;;;27.90;67.90;;;;;;5034337;28;20032;-82
2023/07/14 07:55:19;;;;;;;2.30;0.90;;;27.90;67.90;;;;;;5034412;28;20030;-82
2023/07/14 07:57:47;;;;;;;1.33;0.82;;;28.00;67.50;;;;;;5034019;28;20511;-82
2023/07/14 08:00:15;;;;;;;0.55;0.28;;;28.00;67.30;;;;;;5022867;28;20080;-82
2023/07/14 08:02:42;;;;;;;0.70;0.57;;;28.10;66.90;;;;;;5016902;28;20018;-83
2023/07/14 08:05:11;;;;;;;2.95;0.63;;;28.20;66.70;;;;;;5013776;28;20048;-82
2023/07/14 08:07:36;;;;;;;1.45;0.70;;;28.20;65.50;;;;;;5012945;28;20033;-82
2023/07/14 08:10:03;;;;;;;1.67;0.50;;;28.30;64.70;;;;;;5013244;28;20033;-82
2023/07/14 08:12:28;;;;;;;2.22;0.63;;;28.30;65.00;;;;;;5027452;28;20049;-82
2023/07/14 08:14:56;;;;;;;3.20;0.60;;;28.40;64.90;;;;;;5014052;28;20036;-82
2023/07/14 08:17:27;;;;;;;1.23;0.70;;;28.50;65.10;;;;;;5013737;28;20409;-84
2023/07/14 08:19:53;;;;;;;0.57;0.57;;;28.50;64.90;;;;;;5014219;28;20466;-85
2023/07/14 08:22:20;;;;;;;0.50;0.43;;;28.60;65.00;;;;;;5014134;28;20033;-83
2023/07/14 08:24:46;;;;;;;2.50;0.60;;;28.70;64.60;;;;;;5012617;28;20085;-82
2023/07/14 08:27:12;;;;;;;1.70;0.50;;;28.70;63.40;;;;;;5014268;28;20034;-82
2023/07/14 08:29:37;;;;;;;1.15;0.60;;;28.80;63.80;;;;;;5014000;28;20041;-82
2023/07/14 08:32:03;;;;;;;0.65;0.50;;;28.90;63.70;;;;;;5011322;28;20053;-83
2023/07/14 08:34:29;;;;;;;3.67;0.80;;;28.90;63.00;;;;;;5008781;28;20474;-81
2023/07/14 08:36:56;;;;;;;1.60;0.77;;;29.00;63.50;;;;;;5013667;28;20482;-82
2023/07/14 08:39:22;;;;;;;0.77;0.60;;;29.00;61.00;;;;;;5009383;28;20026;-82
2023/07/14 08:41:52;;;;;;;1.55;0.40;;;29.10;61.10;;;;;;5008544;28;20013;-82
2023/07/14 08:44:42;;;;;;;0.82;0.52;;;29.10;61.50;;;;;;5018167;28;20079;-82
2023/07/14 08:47:18;;;;;;;;;;;29.20;61.20;;;;;;5009636;28;20513;-83
2023/07/14 08:50:00;;;;;;;1.40;0.65;;;29.20;59.80;;;;;;5011665;28;19917;-82
2023/07/14 08:52:32;;;;;;;2.08;0.63;;;29.30;60.50;;;;;;5020378;28;20454;-83
2023/07/14 08:55:37;;;;;;;4.63;0.52;;;29.30;60.20;;;;;;5015304;28;20442;-83
2023/07/14 08:58:10;;;;;;;0.65;0.45;;;29.40;60.10;;;;;;4955401;28;20065;-83
2023/07/14 09:00:36;;;;;;;0.80;0.60;;;29.50;60.20;;;;;;5018029;28;20469;-82
2023/07/14 09:03:19;;;;;;;2.60;0.57;;;29.60;60.50;;;;;;4992019;28;20040;-83
2023/07/14 09:05:58;;;;;;;0.80;0.43;;;29.70;59.80;;;;;;5012097;28;20104;-83
2023/07/14 09:08:29;;;;;;;0.63;0.40;;;29.80;58.90;;;;;;5012175;28;20049;-82
2023/07/14 09:11:01;;;;;;;0.60;0.50;;;29.90;59.80;;;;;;5011050;28;20022;-82
2023/07/14 09:13:40;;;;;;;0.70;0.63;;;29.90;58.30;;;;;;4992870;28;20082;-83
2023/07/14 09:16:08;;;;;;;0.60;0.43;;;30.00;58.90;;;;;;4993509;28;20086;-82
2023/07/14 09:18:57;;;;;;;3.22;0.60;;;30.10;58.80;;;;;;4993451;28;20034;-82
2023/07/14 09:21:45;;;;;;;0.77;0.50;;;30.20;57.40;;;;;;4997180;28;20455;-82
2023/07/14 09:24:21;;;;;;;1.13;0.52;;;30.20;58.00;;;;;;5010013;28;20026;-82
2023/07/14 09:26:54;;;;;;;3.03;0.80;;;30.20;58.30;;;;;;4999466;28;20116;-82
2023/07/14 09:29:34;;;;;;;1.08;0.55;;;30.30;58.10;;;;;;5017144;28;20034;-83
2023/07/14 09:32:06;;;;;;;;;;;30.40;58.50;;;;;;5008000;28;20045;-82
2023/07/14 09:34:46;;;;;;;4.35;0.60;;;30.50;57.00;;;;;;5018538;28;19917;-83
2023/07/14 09:37:21;;;;;;;0.90;0.50;;;30.60;59.20;;;;;;5013236;28;20036;-83
2023/07/14 09:40:09;;;;;;;1.52;0.63;;;30.70;57.90;;;;;;5013781;28;20080;-82
2023/07/14 09:42:39;;;;;;;0.63;0.47;;;30.60;57.70;;;;;;5014495;28;20466;-83
2023/07/14 09:45:22;;;;;;;1.92;0.63;;;30.70;57.20;;;;;;5007134;28;20042;-83
2023/07/14 09:47:58;;;;;;;1.73;0.50;;;30.70;57.00;;;;;;5016137;28;20017;-83
2023/07/14 09:50:25;;;;;;;1.27;0.60;;;30.80;56.00;;;;;;5036495;28;20056;-83
2023/07/14 09:52:57;;;;;;;1.02;0.63;;;30.90;57.40;;;;;;5036380;28;20033;-83
2023/07/14 09:55:24;;;;;;;1.17;0.75;;;31.00;56.40;;;;;;5021399;28;20032;-83
2023/07/14 09:57:53;;;;;;;1.88;0.50;;;31.00;56.50;;;;;;5016027;28;20149;-83
2023/07/14 10:00:27;;;;;;;0.77;0.50;;;31.10;56.90;;;;;;4996721;28;20061;-83
2023/07/14 10:03:29;;;;;;;1.00;0.70;;;31.30;57.40;;;;;;5008523;28;20045;-83
2023/07/14 10:06:03;;;;;;;0.52;0.50;;;31.40;57.10;;;;;;5001516;28;20514;-82
2023/07/14 10:08:44;;;;;;;0.77;0.43;;;31.40;57.30;;;;;;5014870;28;20057;-82
2023/07/14 10:11:38;;;;;;;1.83;0.98;;;31.50;57.40;;;;;;5015823;28;20026;-82
2023/07/14 10:14:26;;;;;;;3.13;0.88;;;31.60;57.00;;;;;;4990746;28;20077;-83
2023/07/14 10:16:56;;;;;;;2.70;0.75;;;31.70;56.90;;;;;;4996294;28;20027;-83
2023/07/14 10:19:33;;;;;;;3.42;0.70;;;31.70;56.70;;;;;;5005499;28;20045;-82
2023/07/14 10:22:04;;;;;;;1.42;0.80;;;31.80;56.50;;;;;;5014714;28;20036;-82
2023/07/14 10:24:31;;;;;;;1.35;0.77;;;31.90;57.10;;;;;;5014851;28;20033;-82
2023/07/14 10:27:05;;;;;;;0.43;0.43;;;32.00;56.30;;;;;;5015885;28;20022;-82
2023/07/14 10:29:47;;;;;;;1.48;0.70;;;32.10;56.20;;;;;;4998308;28;20418;-82
2023/07/14 10:32:41;;;;;;;2.00;0.90;;;32.20;56.90;;;;;;5015702;28;20052;-82
2023/07/14 10:35:18;;;;;;;0.85;0.50;;;32.20;55.50;;;;;;4984484;28;20050;-80
2023/07/14 10:37:59;;;;;;;2.10;0.85;;;32.30;56.00;;;;;;5020219;28;20029;-80
2023/07/14 10:40:29;;;;;;;2.80;0.95;;;32.40;56.10;;;;;;5013669;28;20032;-81
2023/07/14 10:43:17;;;;;;;2.90;0.80;;;32.50;56.00;;;;;;5015911;28;20026;-81
2023/07/14 10:45:49;;;;;;;2.42;0.82;;;32.50;55.70;;;;;;5014493;28;20087;-81
2023/07/14 10:48:25;;;;;;;4.93;0.73;;;32.70;55.50;;;;;;5015777;28;20455;-81
2023/07/14 10:51:04;;;;;;;2.03;1.10;;;32.70;55.50;;;;;;4998081;28;20038;-81
2023/07/14 10:53:48;;;;;;;2.15;0.73;;;32.90;55.40;;;;;;5002375;28;20101;-81
2023/07/14 10:56:33;;;;;;;1.33;0.70;;;33.00;54.40;;;;;;5013103;28;20034;-82
2023/07/14 10:59:06;;;;;;;3.80;0.88;;;33.10;54.20;;;;;;5016435;28;20025;-81
2023/07/14 11:01:38;;;;;;;0.82;0.60;;;33.20;54.20;;;;;;5023007;28;20017;-81
2023/07/14 11:04:23;;;;;;;1.67;0.70;;;33.30;54.80;;;;;;5014313;28;20037;-80
2023/07/14 11:06:53;;;;;;;5.88;1.00;;;33.40;54.70;;;;;;5012196;28;20026;-81
2023/07/14 11:09:18;;;;;;;;;;;33.60;54.80;;;;;;5013179;28;20064;-83
2023/07/14 11:12:03;;;;;;;2.00;0.80;;;33.70;53.40;;;;;;5029039;28;19977;-81
2023/07/14 11:14:55;;;;;;;1.42;0.95;;;33.80;53.80;;;;;;5011387;28;20034;-81
2023/07/14 11:17:35;;;;;;;1.40;0.80;;;33.90;54.10;;;;;;5010987;28;20073;-81
2023/07/14 11:20:29;;;;;;;1.10;0.77;;;34.10;54.20;;;;;;4997383;28;20541;-81
2023/07/14 11:23:23;;;;;;;1.85;0.90;;;34.40;53.30;;;;;;5023054;28;20037;-84
2023/07/14 11:26:20;;;;;;;4.75;1.10;;;34.60;53.80;;;;;;5013962;28;20691;-83
2023/07/14 11:29:10;;;;;;;1.58;0.60;;;34.90;53.60;;;;;;5017098;28;20043;-83
2023/07/14 11:31:59;;;;;;;4.35;1.20;;;35.00;52.80;;;;;;5015894;28;20034;-82
2023/07/14 11:34:30;;;;;;;1.45;0.90;;;35.30;53.00;;;;;;5014313;28;20414;-81
2023/07/14 11:37:20;;;;;;;2.00;0.90;;;35.50;52.70;;;;;;5014089;28;20034;-81
2023/07/14 11:39:52;;;;;;;3.97;1.10;;;35.90;52.00;;;;;;5012122;28;20072;-81
2023/07/14 11:42:25;;;;;;;1.90;0.80;;;36.30;51.40;;;;;;4992440;28;20410;-82
2023/07/14 11:44:54;;;;;;;2.95;1.10;;;36.60;51.20;;;;;;4994069;28;20344;-82
2023/07/14 11:47:38;;;;;;;1.40;0.98;;;36.90;50.70;;;;;;5012854;28;20117;-82
2023/07/14 11:50:16;;;;;;;3.13;0.88;;;37.10;49.20;;;;;;5008548;28;20030;-82
2023/07/14 11:52:57;;;;;;;3.55;1.00;;;37.30;49.30;;;;;;5013984;28;20026;-82
2023/07/14 11:55:27;;;;;;;11.63;1.10;;;37.40;48.60;;;;;;5010932;28;20033;-82
2023/07/14 11:58:05;;;;;;;2.00;0.98;;;37.50;48.50;;;;;;5012847;28;20451;-82
2023/07/14 12:00:41;;;;;;;6.40;1.55;;;37.60;48.40;;;;;;5023702;28;20469;-82
2023/07/14 12:03:40;;;;;;;1.23;0.90;;;37.50;47.60;;;;;;5011759;28;20105;-82
2023/07/14 12:06:18;;;;;;;2.67;0.75;;;37.60;47.70;;;;;;4952681;28;20040;-82
2023/07/14 12:09:05;;;;;;;1.60;0.98;;;37.70;47.50;;;;;;5012163;28;20030;-82
2023/07/14 12:11:49;;;;;;;3.25;0.82;;;37.80;47.90;;;;;;5011577;28;20126;-82
2023/07/14 12:14:35;;;;;;;5.03;1.23;;;38.00;47.40;;;;;;5010357;28;20501;-82
2023/07/14 12:17:02;;;;;;;3.50;1.15;;;38.30;47.40;;;;;;4992339;28;20578;-82
2023/07/14 12:19:48;;;;;;;11.70;1.15;;;38.40;47.50;;;;;;5012595;28;20018;-82
2023/07/14 12:22:36;;;;;;;3.28;1.20;;;38.50;46.40;;;;;;4992669;28;20124;-82
2023/07/14 12:25:10;;;;;;;1.83;1.00;;;38.50;46.60;;;;;;5007817;28;20033;-82
2023/07/14 12:27:41;;;;;;;3.30;1.20;;;38.50;46.50;;;;;;5013081;28;20504;-82
2023/07/14 12:30:14;;;;;;;3.67;1.00;;;38.50;45.90;;;;;;5009908;28;20029;-82
2023/07/14 12:32:40;;;;;;;1.38;0.98;;;38.70;45.90;;;;;;5012677;28;20104;-82
2023/07/14 12:35:14;;;;;;;5.63;1.38;;;38.70;45.90;;;;;;5012977;28;20030;-82
2023/07/14 12:37:40;;;;;;;2.05;0.90;;;38.60;45.30;;;;;;5010433;28;20041;-82
2023/07/14 12:40:17;;;;;;;2.10;1.00;;;38.70;46.70;;;;;;5012504;28;20022;-82
2023/07/14 12:42:44;;;;;;;1.67;0.85;;;38.80;46.50;;;;;;5012176;28;20044;-82
2023/07/14 12:45:16;;;;;;;3.25;1.15;;;39.10;46.80;;;;;;5008485;28;20386;-82
2023/07/14 12:47:44;;;;;;;3.70;1.42;;;39.30;46.70;;;;;;5012115;28;20037;-82
2023/07/14 12:50:20;;;;;;;1.80;1.10;;;39.40;46.50;;;;;;5012466;28;20037;-82
2023/07/14 12:52:48;;;;;;;4.70;1.13;;;39.60;45.40;;;;;;5013234;28;20034;-82
2023/07/14 12:55:16;;;;;;;5.03;1.35;;;39.60;46.20;;;;;;5012027;28;20026;-83
2023/07/14 12:57:42;;;;;;;1.70;1.38;;;39.70;46.00;;;;;;5010619;28;20025;-83
2023/07/14 13:00:20;;;;;;;1.13;0.95;;;39.70;45.90;;;;;;5007391;28;20475;-83
2023/07/14 13:02:48;;;;;;;2.40;1.17;;;39.70;45.70;;;;;;5012084;28;20100;-83
2023/07/14 13:05:15;;;;;;;3.03;1.10;;;39.60;46.10;;;;;;5010760;28;20106;-82
2023/07/14 13:07:54;;;;;;;5.22;1.27;;;39.60;45.70;;;;;;5011648;28;20056;-82